TimeEST,TemperatureF,Dew PointF,Humidity,Sea Level PressureIn,VisibilityMPH,Wind Direction,Wind SpeedMPH,Gust SpeedMPH,PrecipitationIn,Events,Conditions,WindDirDegrees,DateUTC
12:55 AM,39.6,34.0,80,30.12,10.0,Calm,Calm,-,N/A,,Overcast,0,2012-11-21 05:55:00
1:55 AM,37.9,32.7,81,30.12,10.0,NNW,3.5,-,N/A,,Overcast,330,2012-11-21 06:55:00
2:55 AM,38.5,34.2,84,30.13,10.0,North,4.6,-,N/A,,Overcast,360,2012-11-21 07:55:00
3:55 AM,36.3,31.5,83,30.13,10.0,NNW,4.6,-,N/A,,Scattered Clouds,340,2012-11-21 08:55:00
4:55 AM,35.1,30.4,83,30.14,10.0,North,4.6,-,N/A,,Partly Cloudy,350,2012-11-21 09:55:00
5:55 AM,34.9,30.9,85,30.16,10.0,NW,5.8,-,N/A,,Clear,320,2012-11-21 10:55:00
6:28 AM,35.6,30.2,81,30.16,10.0,NNW,4.6,-,N/A,,Mostly Cloudy,330,2012-11-21 11:28:00
6:49 AM,35.6,30.2,81,30.16,10.0,NW,4.6,-,N/A,,Mostly Cloudy,320,2012-11-21 11:49:00
6:55 AM,35.1,30.9,85,30.17,10.0,NW,5.8,-,N/A,,Mostly Cloudy,320,2012-11-21 11:55:00
7:14 AM,35.6,30.2,81,30.17,10.0,NW,5.8,-,N/A,,Mostly Cloudy,320,2012-11-21 12:14:00
7:20 AM,35.6,30.2,81,30.17,10.0,NW,6.9,-,N/A,,Scattered Clouds,320,2012-11-21 12:20:00
7:55 AM,37.2,32.7,84,30.18,10.0,NNW,5.8,-,N/A,,Clear,330,2012-11-21 12:55:00
8:55 AM,43.9,36.3,75,30.18,10.0,NNE,8.1,-,N/A,,Clear,20,2012-11-21 13:55:00
9:55 AM,47.1,35.6,64,30.19,10.0,NNE,8.1,-,N/A,,Clear,20,2012-11-21 14:55:00
10:55 AM,50.0,31.1,48,30.19,10.0,North,9.2,-,N/A,,Clear,350,2012-11-21 15:55:00
11:55 AM,51.8,30.2,44,30.18,10.0,NNE,11.5,-,N/A,,Clear,20,2012-11-21 16:55:00
12:55 PM,53.1,32.4,45,30.16,10.0,North,9.2,-,N/A,,Clear,10,2012-11-21 17:55:00
1:55 PM,53.6,33.6,47,30.14,10.0,NNE,6.9,-,N/A,,Clear,20,2012-11-21 18:55:00
2:55 PM,53.2,29.3,40,30.14,10.0,NE,8.1,-,N/A,,Clear,40,2012-11-21 19:55:00
3:55 PM,50.4,30.9,47,30.16,10.0,NNE,8.1,-,N/A,,Clear,30,2012-11-21 20:55:00
4:55 PM,43.9,28.9,56,30.18,10.0,NNE,4.6,-,N/A,,Clear,20,2012-11-21 21:55:00
5:55 PM,42.6,28.0,56,30.19,10.0,Calm,Calm,-,N/A,,Clear,0,2012-11-21 22:55:00
6:55 PM,39.6,28.4,64,30.20,10.0,Calm,Calm,-,N/A,,Clear,0,2012-11-21 23:55:00
7:55 PM,37.2,29.1,73,30.21,10.0,Calm,Calm,-,N/A,,Clear,0,2012-11-22 00:55:00
8:55 PM,35.1,28.8,78,30.21,10.0,Calm,Calm,-,N/A,,Clear,0,2012-11-22 01:55:00
9:55 PM,33.4,28.6,82,30.22,10.0,NNW,4.6,-,N/A,,Clear,330,2012-11-22 02:55:00
10:55 PM,35.4,27.0,71,30.21,10.0,Calm,Calm,-,N/A,,Clear,0,2012-11-22 03:55:00
11:55 PM,36.3,27.1,69,30.21,10.0,Calm,Calm,-,N/A,,Clear,0,2012-11-22 04:55:00